CRB weather

Collarenebri Airport
New South Wales, Australia

Public forecast

Using degrees Celsius for public forecast. Weather courtesy of forecast.io.

Closest aviation weather report (METAR) to Collarenebri Airport

Closest report is Moree Airport, 66.0 nm (122.2 km) E. Retrieved 2019/10/21 18:00 UTC (51 minutes ago):

YMOR 211800Z AUTO 05007KT 9999 // NCD 16/06 Q1023

Closest aviation forecast (TAF) to Collarenebri Airport

Closest forecast is Tamworth Airport, 150.3 nm (278.3 km) SE. Retrieved 2019/10/21 18:36 UTC (15 minutes ago):

TAF TAF YSTW 211701Z 2118/2212 09005KT CAVOK FM212300 20005KT CAVOK FM221000 13008KT CAVOK